Time;durP1;ratioP1;P1;durP2;ratioP2;P2;SDS_P1;SDS_P2;PMS_P1;PMS_P2;Temp;Humidity;BMP_temperature;BMP_pressure;BME280_temperature;BME280_humidity;BME280_pressure;Samples;Min_cycle;Max_cycle;Signal;HPM_P1;HPM_P2
2022/07/24 00:02:00;;;;;;;13.50;11.90;;;;;;;;;;109521;1251;33917;-34
2022/07/24 00:04:33;;;;;;;13.00;11.70;;;;;;;;;;109512;1257;33556;-33
2022/07/24 00:07:06;;;;;;;13.80;12.50;;;;;;;;;;109523;1251;33476;-33
2022/07/24 00:09:41;;;;;;;13.50;12.30;;;;;;;;;;109514;1258;34205;-33
2022/07/24 00:12:15;;;;;;;14.30;12.90;;;;;;;;;;109542;1260;34268;-33
2022/07/24 00:14:47;;;;;;;14.80;13.20;;;;;;;;;;109528;1251;33909;-33
2022/07/24 00:17:22;;;;;;;15.80;13.60;;;;;;;;;;109523;1251;33344;-33
2022/07/24 00:19:54;;;;;;;14.90;13.60;;;;;;;;;;109524;1259;34618;-33
2022/07/24 00:22:30;;;;;;;14.80;13.40;;;;;;;;;;109536;1260;34206;-33
2022/07/24 00:25:03;;;;;;;15.40;13.90;;;;;;;;;;109546;1251;33838;-33
2022/07/24 00:27:36;;;;;;;14.00;12.70;;;;;;;;;;109500;1252;33505;-32
2022/07/24 00:30:12;;;;;;;13.50;12.20;;;;;;;;;;109516;1251;34015;-33
2022/07/24 00:32:44;;;;;;;14.40;13.00;;;;;;;;;;109556;1258;33377;-33
2022/07/24 00:35:17;;;;;;;14.30;12.90;;;;;;;;;;109543;1251;33472;-33
2022/07/24 00:37:50;;;;;;;14.20;12.70;;;;;;;;;;109492;1251;34404;-32
2022/07/24 00:40:25;;;;;;;14.20;12.90;;;;;;;;;;109497;1258;34372;-33
2022/07/24 00:42:58;;;;;;;14.80;13.40;;;;;;;;;;109517;1251;33747;-33
2022/07/24 00:45:33;;;;;;;15.30;13.40;;;;;;;;;;109537;1251;33947;-34
2022/07/24 00:48:11;;;;;;;14.70;13.20;;;;;;;;;;109509;1251;33944;-33
2022/07/24 00:50:44;;;;;;;15.60;14.10;;;;;;;;;;109523;1252;33838;-32
2022/07/24 00:53:17;;;;;;;16.70;13.80;;;;;;;;;;109511;1259;34302;-33
2022/07/24 00:55:49;;;;;;;14.90;13.50;;;;;;;;;;109527;1251;33591;-33
2022/07/24 00:58:21;;;;;;;14.00;12.60;;;;;;;;;;109500;1251;33932;-32
2022/07/24 01:00:56;;;;;;;14.50;13.10;;;;;;;;;;109534;1258;34315;-34
2022/07/24 01:03:29;;;;;;;14.70;13.20;;;;;;;;;;109507;1251;34138;-34
2022/07/24 01:06:02;;;;;;;14.80;13.40;;;;;;;;;;109538;1258;33367;-34
2022/07/24 01:08:36;;;;;;;15.20;13.80;;;;;;;;;;109535;1260;34413;-33
2022/07/24 01:11:09;;;;;;;14.10;12.80;;;;;;;;;;109514;1251;34526;-33
2022/07/24 01:13:41;;;;;;;;;;;;;;;;;;109532;1251;33833;-34
2022/07/24 01:16:13;;;;;;;13.30;11.90;;;;;;;;;;109524;1251;33502;-33
2022/07/24 01:18:46;;;;;;;13.90;11.20;;;;;;;;;;109519;1251;33835;-33
2022/07/24 01:21:18;;;;;;;10.10;9.00;;;;;;;;;;109530;1251;34159;-33
2022/07/24 01:23:51;;;;;;;10.40;8.60;;;;;;;;;;109499;1258;34208;-33
2022/07/24 01:26:24;;;;;;;10.10;7.80;;;;;;;;;;109553;1251;33536;-33
2022/07/24 01:28:57;;;;;;;7.90;7.00;;;;;;;;;;109535;1251;33332;-33
2022/07/24 01:31:32;;;;;;;10.50;6.90;;;;;;;;;;109529;1251;33839;-33
2022/07/24 01:34:05;;;;;;;9.20;6.90;;;;;;;;;;109511;1258;34241;-33
2022/07/24 01:36:37;;;;;;;8.00;5.70;;;;;;;;;;109495;1251;33704;-33
2022/07/24 01:39:10;;;;;;;7.80;6.30;;;;;;;;;;109518;1251;33649;-33
2022/07/24 01:41:43;;;;;;;8.60;5.80;;;;;;;;;;109541;1251;33848;-32
2022/07/24 01:44:15;;;;;;;7.20;5.50;;;;;;;;;;109510;1250;33922;-35
2022/07/24 01:46:49;;;;;;;6.00;5.40;;;;;;;;;;109504;1251;34289;-33
2022/07/24 01:49:21;;;;;;;8.30;5.90;;;;;;;;;;109528;1251;33908;-33
2022/07/24 01:51:57;;;;;;;6.30;4.80;;;;;;;;;;109516;1257;33757;-33
2022/07/24 01:54:29;;;;;;;5.90;4.50;;;;;;;;;;109509;1258;33549;-34
2022/07/24 01:57:01;;;;;;;6.20;4.60;;;;;;;;;;109533;1250;33990;-33
2022/07/24 01:59:34;;;;;;;7.00;4.70;;;;;;;;;;109553;1251;33800;-33
2022/07/24 02:02:06;;;;;;;6.40;4.20;;;;;;;;;;109537;1251;33941;-32
2022/07/24 02:04:39;;;;;;;5.80;4.10;;;;;;;;;;109532;1260;34074;-32
2022/07/24 02:07:11;;;;;;;6.40;3.80;;;;;;;;;;109536;1252;33296;-33
2022/07/24 02:09:43;;;;;;;4.60;3.60;;;;;;;;;;109544;1258;33935;-33
2022/07/24 02:12:16;;;;;;;5.20;3.50;;;;;;;;;;109527;1251;33833;-32
2022/07/24 02:14:48;;;;;;;5.30;3.30;;;;;;;;;;109537;1250;34237;-33
2022/07/24 02:17:20;;;;;;;5.10;3.20;;;;;;;;;;109517;1251;33788;-35
2022/07/24 02:19:53;;;;;;;6.20;3.70;;;;;;;;;;109514;1251;34194;-34
2022/07/24 02:22:26;;;;;;;7.10;3.50;;;;;;;;;;109536;1260;34137;-34
2022/07/24 02:24:59;;;;;;;4.70;3.40;;;;;;;;;;109511;1251;33932;-34
2022/07/24 02:27:31;;;;;;;9.90;3.50;;;;;;;;;;109508;1251;33690;-35
2022/07/24 02:30:06;;;;;;;6.30;3.20;;;;;;;;;;109564;1251;33757;-32
2022/07/24 02:32:39;;;;;;;7.00;3.70;;;;;;;;;;109536;1258;34003;-33
2022/07/24 02:35:12;;;;;;;6.40;3.50;;;;;;;;;;109534;1258;34039;-32
2022/07/24 02:37:47;;;;;;;5.80;3.00;;;;;;;;;;109524;1251;33265;-34
2022/07/24 02:40:20;;;;;;;6.70;3.10;;;;;;;;;;109514;1251;33997;-34
2022/07/24 02:42:53;;;;;;;5.00;3.10;;;;;;;;;;109493;1260;33868;-32
2022/07/24 02:45:27;;;;;;;4.70;2.80;;;;;;;;;;109501;1251;33393;-32
2022/07/24 02:48:00;;;;;;;5.70;3.00;;;;;;;;;;109518;1251;33999;-32
2022/07/24 02:50:40;;;;;;;5.40;2.70;;;;;;;;;;109531;1250;33849;-33
2022/07/24 02:53:12;;;;;;;5.20;2.70;;;;;;;;;;109507;1251;33380;-33
2022/07/24 02:55:45;;;;;;;5.10;2.90;;;;;;;;;;109519;1258;33938;-33
2022/07/24 02:58:19;;;;;;;5.70;3.00;;;;;;;;;;109506;1251;33910;-33
2022/07/24 03:00:52;;;;;;;6.60;2.60;;;;;;;;;;109539;1251;33938;-33
2022/07/24 03:03:24;;;;;;;5.20;2.50;;;;;;;;;;109515;1257;33383;-32
2022/07/24 03:05:56;;;;;;;5.00;2.60;;;;;;;;;;109545;1259;34125;-32
2022/07/24 03:08:29;;;;;;;3.70;2.30;;;;;;;;;;109540;1251;33838;-32
2022/07/24 03:11:01;;;;;;;5.40;2.40;;;;;;;;;;109521;1251;33835;-33
2022/07/24 03:13:33;;;;;;;4.30;2.30;;;;;;;;;;109547;1251;33928;-33
2022/07/24 03:16:07;;;;;;;5.00;2.70;;;;;;;;;;109543;1260;33843;-33
2022/07/24 03:18:40;;;;;;;3.90;2.30;;;;;;;;;;109527;1258;33316;-33
2022/07/24 03:21:14;;;;;;;4.90;2.30;;;;;;;;;;109553;1251;33805;-33
2022/07/24 03:23:46;;;;;;;4.30;2.10;;;;;;;;;;109540;1251;33861;-33
2022/07/24 03:26:18;;;;;;;4.40;2.60;;;;;;;;;;109537;1259;34420;-33
2022/07/24 03:28:51;;;;;;;4.40;2.40;;;;;;;;;;109517;1258;33313;-33
2022/07/24 03:31:23;;;;;;;4.90;2.60;;;;;;;;;;109526;1258;33698;-33
2022/07/24 03:33:58;;;;;;;3.90;2.30;;;;;;;;;;109514;1251;33948;-33
2022/07/24 03:36:30;;;;;;;4.40;2.20;;;;;;;;;;109534;1259;34070;-33
2022/07/24 03:39:03;;;;;;;4.10;2.30;;;;;;;;;;109539;1258;34243;-33
2022/07/24 03:41:35;;;;;;;4.10;2.30;;;;;;;;;;109541;1251;33807;-33
2022/07/24 03:44:11;;;;;;;4.20;2.20;;;;;;;;;;109509;1251;34035;-33
2022/07/24 03:46:47;;;;;;;4.50;2.20;;;;;;;;;;109534;1251;34111;-33
2022/07/24 03:49:19;;;;;;;3.40;1.90;;;;;;;;;;109527;1251;33386;-33
2022/07/24 03:51:52;;;;;;;3.70;2.20;;;;;;;;;;109525;1251;33363;-33
2022/07/24 03:54:25;;;;;;;3.80;2.10;;;;;;;;;;109556;1251;33788;-33
2022/07/24 03:56:57;;;;;;;4.40;2.30;;;;;;;;;;109479;1251;33959;-33
2022/07/24 03:59:30;;;;;;;3.70;2.10;;;;;;;;;;109510;1251;33871;-33
2022/07/24 04:02:03;;;;;;;4.20;2.50;;;;;;;;;;109546;1251;33495;-33
2022/07/24 04:04:34;;;;;;;;;;;;;;;;;;109567;1258;33852;-33
2022/07/24 04:07:09;;;;;;;4.20;2.00;;;;;;;;;;109557;1251;33944;-33
2022/07/24 04:09:43;;;;;;;5.20;2.40;;;;;;;;;;109556;1251;33726;-33
2022/07/24 04:12:15;;;;;;;4.00;2.20;;;;;;;;;;109537;1251;33758;-33
2022/07/24 04:14:48;;;;;;;4.20;2.30;;;;;;;;;;109553;1251;33852;-33
2022/07/24 04:17:20;;;;;;;4.00;2.20;;;;;;;;;;109528;1259;34478;-33
2022/07/24 04:19:52;;;;;;;3.90;2.10;;;;;;;;;;109542;1251;33851;-33
2022/07/24 04:22:25;;;;;;;3.70;2.00;;;;;;;;;;109572;1251;33872;-33
2022/07/24 04:24:57;;;;;;;4.50;2.20;;;;;;;;;;109514;1251;34098;-33
2022/07/24 04:27:29;;;;;;;4.60;2.40;;;;;;;;;;109513;1251;34217;-33
2022/07/24 04:30:02;;;;;;;4.10;2.50;;;;;;;;;;109505;1259;34167;-33
2022/07/24 04:32:34;;;;;;;4.50;2.40;;;;;;;;;;109557;1251;33812;-33
2022/07/24 04:35:09;;;;;;;4.30;2.10;;;;;;;;;;109561;1251;33756;-33
2022/07/24 04:37:41;;;;;;;4.00;2.10;;;;;;;;;;109559;1258;33696;-33
2022/07/24 04:40:21;;;;;;;4.60;2.20;;;;;;;;;;109539;1251;33987;-33
2022/07/24 04:42:53;;;;;;;4.30;2.30;;;;;;;;;;109556;1251;33717;-33
2022/07/24 04:45:29;;;;;;;4.00;1.80;;;;;;;;;;109560;1251;33975;-33
2022/07/24 04:48:01;;;;;;;3.90;2.20;;;;;;;;;;109541;1251;34376;-33
2022/07/24 04:50:34;;;;;;;4.10;2.20;;;;;;;;;;109529;1251;34203;-33
2022/07/24 04:53:09;;;;;;;3.80;2.00;;;;;;;;;;109535;1251;33832;-33
2022/07/24 04:55:42;;;;;;;3.60;2.20;;;;;;;;;;109512;1251;33870;-33
2022/07/24 04:58:16;;;;;;;4.10;2.10;;;;;;;;;;109167;1258;34307;-33
2022/07/24 05:00:51;;;;;;;3.50;1.90;;;;;;;;;;109478;1251;33730;-33
2022/07/24 05:03:27;;;;;;;4.20;2.20;;;;;;;;;;109517;1258;33393;-33
2022/07/24 05:05:59;;;;;;;4.00;1.90;;;;;;;;;;109524;1251;33851;-33
2022/07/24 05:08:32;;;;;;;3.90;2.30;;;;;;;;;;109521;1258;34231;-33
2022/07/24 05:11:04;;;;;;;4.50;2.30;;;;;;;;;;109534;1258;33328;-33
2022/07/24 05:13:37;;;;;;;4.40;2.30;;;;;;;;;;109531;1251;34229;-33
2022/07/24 05:16:11;;;;;;;3.30;1.90;;;;;;;;;;109539;1251;33807;-33
2022/07/24 05:18:44;;;;;;;3.80;2.20;;;;;;;;;;109566;1251;33904;-33
2022/07/24 05:21:17;;;;;;;4.40;2.20;;;;;;;;;;109538;1251;33313;-33
2022/07/24 05:23:51;;;;;;;4.00;1.80;;;;;;;;;;109509;1251;33868;-33
2022/07/24 05:26:24;;;;;;;4.10;1.90;;;;;;;;;;109517;1251;33919;-33
2022/07/24 05:28:55;;;;;;;;;;;;;;;;;;109541;1250;33259;-33
2022/07/24 05:31:29;;;;;;;4.00;1.90;;;;;;;;;;109500;1251;33301;-33
2022/07/24 05:34:02;;;;;;;4.30;1.90;;;;;;;;;;109552;1251;33662;-33
2022/07/24 05:36:35;;;;;;;3.70;2.00;;;;;;;;;;109548;1251;33388;-33
2022/07/24 05:39:08;;;;;;;4.90;1.80;;;;;;;;;;109525;1251;34024;-33
2022/07/24 05:41:41;;;;;;;4.90;2.10;;;;;;;;;;109543;1251;33700;-33
2022/07/24 05:44:12;;;;;;;;;;;;;;;;;;109533;1251;33491;-33
2022/07/24 05:46:44;;;;;;;3.30;1.80;;;;;;;;;;109525;1251;33858;-33
2022/07/24 05:49:16;;;;;;;3.90;2.00;;;;;;;;;;109530;1251;33827;-33
2022/07/24 05:51:49;;;;;;;3.60;2.00;;;;;;;;;;109544;1251;33268;-33
2022/07/24 05:54:23;;;;;;;3.80;2.20;;;;;;;;;;109530;1251;34013;-33
2022/07/24 05:56:56;;;;;;;3.20;1.90;;;;;;;;;;109564;1252;33923;-33
2022/07/24 05:59:28;;;;;;;3.00;1.70;;;;;;;;;;109533;1251;34185;-33
2022/07/24 06:02:03;;;;;;;5.70;1.90;;;;;;;;;;109098;1251;607204;-33
2022/07/24 06:04:41;;;;;;;3.60;2.20;;;;;;;;;;109523;1251;33694;-33
2022/07/24 06:07:14;;;;;;;3.40;1.90;;;;;;;;;;109572;1251;33964;-33
2022/07/24 06:09:47;;;;;;;3.30;1.90;;;;;;;;;;109518;1251;33786;-33
2022/07/24 06:12:19;;;;;;;3.60;1.80;;;;;;;;;;109505;1251;33760;-33
2022/07/24 06:14:51;;;;;;;3.70;2.00;;;;;;;;;;109536;1251;33835;-33
2022/07/24 06:17:23;;;;;;;4.10;2.00;;;;;;;;;;109547;1251;33845;-33
2022/07/24 06:19:56;;;;;;;3.80;1.60;;;;;;;;;;109536;1251;33874;-33
2022/07/24 06:22:28;;;;;;;3.50;1.80;;;;;;;;;;109532;1251;34581;-33
2022/07/24 06:25:02;;;;;;;2.90;1.60;;;;;;;;;;109545;1251;33563;-33
2022/07/24 06:27:42;;;;;;;4.40;1.90;;;;;;;;;;109571;1251;33838;-33
2022/07/24 06:30:21;;;;;;;3.30;1.70;;;;;;;;;;109556;1251;33900;-33
2022/07/24 06:32:59;;;;;;;3.60;1.70;;;;;;;;;;109549;1251;33765;-33
2022/07/24 06:35:32;;;;;;;3.20;1.90;;;;;;;;;;109544;1251;33742;-33
2022/07/24 06:38:05;;;;;;;4.00;1.90;;;;;;;;;;109540;1251;34339;-33
2022/07/24 06:40:40;;;;;;;3.40;1.70;;;;;;;;;;109537;1251;33974;-33
2022/07/24 06:43:13;;;;;;;4.30;1.60;;;;;;;;;;109549;1258;33932;-33
2022/07/24 06:45:45;;;;;;;3.90;1.70;;;;;;;;;;109569;1251;33454;-33
2022/07/24 06:48:18;;;;;;;3.90;1.80;;;;;;;;;;109553;1251;34230;-33
2022/07/24 06:50:50;;;;;;;3.20;1.50;;;;;;;;;;109526;1258;34810;-33
2022/07/24 06:53:23;;;;;;;2.80;1.50;;;;;;;;;;109548;1258;33956;-33
2022/07/24 06:55:58;;;;;;;4.00;1.70;;;;;;;;;;109539;1251;33697;-33
2022/07/24 06:58:30;;;;;;;3.90;1.90;;;;;;;;;;109520;1251;33724;-33
2022/07/24 07:01:03;;;;;;;4.40;1.80;;;;;;;;;;109515;1250;33904;-33
2022/07/24 07:03:38;;;;;;;3.30;1.40;;;;;;;;;;109546;1260;33686;-33
2022/07/24 07:06:11;;;;;;;3.60;1.50;;;;;;;;;;109538;1258;34086;-33
2022/07/24 07:08:44;;;;;;;3.10;1.60;;;;;;;;;;109568;1251;33903;-33
2022/07/24 07:11:16;;;;;;;3.30;1.60;;;;;;;;;;109537;1251;33862;-33
2022/07/24 07:13:49;;;;;;;3.00;1.40;;;;;;;;;;109530;1258;33045;-33
2022/07/24 07:16:21;;;;;;;3.20;1.70;;;;;;;;;;109533;1251;33758;-33
2022/07/24 07:18:56;;;;;;;4.10;1.50;;;;;;;;;;109558;1251;33640;-33
2022/07/24 07:21:28;;;;;;;3.60;2.00;;;;;;;;;;109519;1251;34364;-33
2022/07/24 07:24:01;;;;;;;3.60;1.70;;;;;;;;;;109531;1258;34105;-33
2022/07/24 07:26:34;;;;;;;3.20;1.60;;;;;;;;;;109543;1251;33791;-33
2022/07/24 07:29:06;;;;;;;2.80;1.60;;;;;;;;;;109551;1251;33853;-33
2022/07/24 07:31:39;;;;;;;3.30;1.50;;;;;;;;;;109553;1251;34034;-33
2022/07/24 07:34:11;;;;;;;3.10;1.60;;;;;;;;;;109552;1251;34033;-33
2022/07/24 07:36:43;;;;;;;4.00;1.70;;;;;;;;;;109543;1251;33720;-33
2022/07/24 07:39:16;;;;;;;3.60;1.50;;;;;;;;;;109565;1258;33887;-33
2022/07/24 07:41:48;;;;;;;3.70;1.70;;;;;;;;;;109538;1258;34102;-33
2022/07/24 07:44:20;;;;;;;2.90;1.60;;;;;;;;;;109539;1258;34238;-33
2022/07/24 07:46:52;;;;;;;3.20;1.60;;;;;;;;;;109550;1258;33762;-33
2022/07/24 07:49:25;;;;;;;4.50;1.50;;;;;;;;;;109534;1251;34022;-33
2022/07/24 07:51:57;;;;;;;3.60;1.70;;;;;;;;;;109532;1257;34100;-33
2022/07/24 07:54:29;;;;;;;3.90;1.40;;;;;;;;;;109507;1258;33259;-33
2022/07/24 07:57:02;;;;;;;4.20;1.40;;;;;;;;;;109571;1251;33711;-33
2022/07/24 07:59:34;;;;;;;3.10;1.60;;;;;;;;;;109524;1251;34167;-33
2022/07/24 08:02:07;;;;;;;5.30;1.80;;;;;;;;;;109541;1258;34234;-33
2022/07/24 08:04:39;;;;;;;3.80;1.80;;;;;;;;;;109529;1251;33765;-33
2022/07/24 08:07:12;;;;;;;4.10;1.70;;;;;;;;;;109525;1251;33495;-33
2022/07/24 08:09:45;;;;;;;3.00;1.50;;;;;;;;;;109522;1251;34005;-33
2022/07/24 08:12:17;;;;;;;4.20;1.80;;;;;;;;;;109529;1258;34340;-33
2022/07/24 08:14:52;;;;;;;3.60;2.00;;;;;;;;;;109552;1251;33312;-33
2022/07/24 08:17:24;;;;;;;3.70;1.80;;;;;;;;;;109524;1251;34339;-33
2022/07/24 08:19:59;;;;;;;4.50;1.80;;;;;;;;;;109548;1251;33858;-33
2022/07/24 08:22:32;;;;;;;3.80;1.90;;;;;;;;;;109529;1258;34176;-33
2022/07/24 08:25:05;;;;;;;3.30;2.00;;;;;;;;;;109550;1258;34294;-33
2022/07/24 08:27:44;;;;;;;3.70;1.90;;;;;;;;;;109557;1251;33351;-33
2022/07/24 08:30:19;;;;;;;3.70;2.10;;;;;;;;;;109524;1251;33520;-33
2022/07/24 08:32:50;;;;;;;;;;;;;;;;;;109541;1258;34278;-33
2022/07/24 08:35:23;;;;;;;3.20;1.90;;;;;;;;;;109537;1251;33893;-33
2022/07/24 08:37:55;;;;;;;4.50;1.90;;;;;;;;;;109559;1251;33723;-33
2022/07/24 08:40:35;;;;;;;3.70;1.90;;;;;;;;;;109560;1251;34003;-33
2022/07/24 08:43:10;;;;;;;4.00;2.00;;;;;;;;;;109523;1253;33852;-33
2022/07/24 08:45:43;;;;;;;3.40;2.00;;;;;;;;;;109522;1258;33303;-33
2022/07/24 08:48:15;;;;;;;4.70;2.30;;;;;;;;;;109549;1251;33809;-33
2022/07/24 08:50:48;;;;;;;5.20;1.70;;;;;;;;;;109518;1251;34391;-33
2022/07/24 08:53:23;;;;;;;4.50;1.90;;;;;;;;;;109535;1251;33875;-33
2022/07/24 08:55:55;;;;;;;3.40;1.70;;;;;;;;;;109540;1259;33457;-33
2022/07/24 08:58:30;;;;;;;3.80;1.80;;;;;;;;;;109520;1258;33421;-33
2022/07/24 09:01:04;;;;;;;3.20;1.60;;;;;;;;;;109550;1251;33703;-33
2022/07/24 09:03:46;;;;;;;3.80;2.20;;;;;;;;;;109589;1251;34205;-33
2022/07/24 09:06:22;;;;;;;3.10;1.90;;;;;;;;;;109582;1250;33277;-33
2022/07/24 09:09:04;;;;;;;3.80;1.70;;;;;;;;;;109521;1251;33383;-33
2022/07/24 09:11:39;;;;;;;3.40;1.70;;;;;;;;;;109571;1258;34254;-33
2022/07/24 09:14:31;;;;;;;4.20;1.90;;;;;;;;;;109548;1251;33465;-33
2022/07/24 09:17:09;;;;;;;3.70;1.60;;;;;;;;;;109515;1251;33704;-33
2022/07/24 09:19:54;;;;;;;3.20;1.70;;;;;;;;;;109568;1251;33961;-33
2022/07/24 09:22:37;;;;;;;2.90;1.40;;;;;;;;;;109566;1257;34240;-33
2022/07/24 09:25:14;;;;;;;4.10;1.90;;;;;;;;;;109547;1257;33832;-33
2022/07/24 09:27:53;;;;;;;3.70;1.70;;;;;;;;;;109538;1251;33720;-33
2022/07/24 09:30:31;;;;;;;4.10;1.60;;;;;;;;;;109549;1251;33672;-33
2022/07/24 09:33:11;;;;;;;2.90;1.40;;;;;;;;;;109525;1251;33694;-33
2022/07/24 09:35:48;;;;;;;3.50;1.70;;;;;;;;;;109530;1251;34135;-33
2022/07/24 09:38:23;;;;;;;5.00;1.80;;;;;;;;;;109535;1251;33967;-33
2022/07/24 09:40:59;;;;;;;4.10;1.80;;;;;;;;;;109542;1251;33811;-33
2022/07/24 09:43:34;;;;;;;3.70;1.40;;;;;;;;;;109511;1251;33897;-33
2022/07/24 09:46:10;;;;;;;3.80;1.80;;;;;;;;;;109536;1251;33910;-33
2022/07/24 09:48:57;;;;;;;2.60;1.30;;;;;;;;;;109521;1251;33839;-36
2022/07/24 09:51:31;;;;;;;3.20;1.40;;;;;;;;;;109559;1258;34179;-37
2022/07/24 09:54:11;;;;;;;4.00;1.90;;;;;;;;;;109839;1247;33843;31
2022/07/24 09:56:48;;;;;;;3.40;1.60;;;;;;;;;;108908;1261;34993;-36
2022/07/24 09:59:28;;;;;;;3.60;1.60;;;;;;;;;;108893;1253;34593;-36
2022/07/24 10:02:01;;;;;;;3.40;1.50;;;;;;;;;;108885;1253;33920;-36
2022/07/24 10:04:36;;;;;;;4.90;1.60;;;;;;;;;;108922;1253;33726;-35
2022/07/24 10:07:12;;;;;;;3.40;1.80;;;;;;;;;;108913;1253;34374;-35
2022/07/24 10:09:48;;;;;;;3.20;1.60;;;;;;;;;;108892;1253;33859;-36
2022/07/24 10:12:26;;;;;;;3.50;1.80;;;;;;;;;;108931;1253;33435;-34
2022/07/24 10:15:08;;;;;;;4.10;1.60;;;;;;;;;;108900;1261;34044;-35
2022/07/24 10:18:15;;;;;;;3.40;1.80;;;;;;;;;;108922;1261;34516;-33
2022/07/24 10:20:49;;;;;;;3.20;1.70;;;;;;;;;;108917;1253;33435;-35
2022/07/24 10:23:28;;;;;;;2.50;1.20;;;;;;;;;;108924;1262;34144;-35
2022/07/24 10:26:09;;;;;;;2.80;1.40;;;;;;;;;;108902;1253;33505;-31
2022/07/24 10:28:52;;;;;;;2.90;1.50;;;;;;;;;;108865;1253;33994;-34
2022/07/24 10:31:27;;;;;;;3.30;1.50;;;;;;;;;;108893;1253;33586;-32
2022/07/24 10:34:01;;;;;;;3.40;1.70;;;;;;;;;;108907;1253;33841;-35
2022/07/24 10:36:37;;;;;;;2.80;1.40;;;;;;;;;;108865;1260;34292;-36
2022/07/24 10:39:22;;;;;;;2.90;1.30;;;;;;;;;;108889;1261;34180;-34
2022/07/24 10:42:07;;;;;;;4.50;1.50;;;;;;;;;;108882;1253;33844;-35
2022/07/24 10:45:17;;;;;;;2.90;1.30;;;;;;;;;;108914;1253;33736;-37
2022/07/24 10:47:57;;;;;;;2.80;1.20;;;;;;;;;;108908;1261;34249;-34
2022/07/24 10:51:05;;;;;;;3.00;1.60;;;;;;;;;;108907;1253;33904;-33
2022/07/24 10:53:52;;;;;;;3.60;1.50;;;;;;;;;;108951;1253;33375;-32
2022/07/24 10:56:29;;;;;;;3.10;1.50;;;;;;;;;;109129;1253;34496;-35
2022/07/24 10:59:09;;;;;;;3.40;1.60;;;;;;;;;;109125;1253;33725;-34
2022/07/24 11:01:44;;;;;;;2.40;1.40;;;;;;;;;;108974;1253;33438;-32
2022/07/24 11:04:33;;;;;;;3.20;1.80;;;;;;;;;;108877;1253;34141;-32
2022/07/24 11:07:15;;;;;;;2.70;1.30;;;;;;;;;;109100;1259;34382;-34
2022/07/24 11:10:07;;;;;;;5.20;1.40;;;;;;;;;;109072;1260;34382;-34
2022/07/24 11:12:47;;;;;;;3.10;1.30;;;;;;;;;;109089;1260;34020;-32
2022/07/24 11:18:18;;;;;;;3.00;1.70;;;;;;;;;;109100;1254;33474;-32
2022/07/24 11:20:51;;;;;;;2.60;1.30;;;;;;;;;;109117;1253;33794;-35
2022/07/24 11:23:27;;;;;;;2.70;1.50;;;;;;;;;;109142;1260;34421;-33
2022/07/24 11:26:40;;;;;;;3.00;1.40;;;;;;;;;;109243;1260;31228;-39
2022/07/24 11:29:16;;;;;;;2.80;1.40;;;;;;;;;;109167;1260;34227;-34
2022/07/24 11:31:51;;;;;;;3.50;1.40;;;;;;;;;;109094;1253;34392;-33
2022/07/24 11:34:23;;;;;;;2.40;1.30;;;;;;;;;;109116;1253;33591;-35
2022/07/24 11:36:57;;;;;;;2.80;1.20;;;;;;;;;;109115;1260;34255;-35
2022/07/24 11:39:34;;;;;;;3.10;1.80;;;;;;;;;;109114;1253;33729;-33
2022/07/24 11:42:12;;;;;;;2.90;1.30;;;;;;;;;;109111;1253;33440;-34
2022/07/24 11:44:52;;;;;;;3.90;1.70;;;;;;;;;;109125;1253;32744;-32
2022/07/24 11:47:27;;;;;;;2.00;1.10;;;;;;;;;;109101;1260;34268;-32
2022/07/24 11:50:05;;;;;;;2.40;1.10;;;;;;;;;;109126;1253;33298;-34
2022/07/24 11:52:42;;;;;;;3.10;1.50;;;;;;;;;;109099;1253;33495;-33
2022/07/24 11:55:19;;;;;;;2.20;1.20;;;;;;;;;;109130;1254;33865;-33
2022/07/24 11:57:57;;;;;;;3.00;1.50;;;;;;;;;;109071;1253;33911;-36
2022/07/24 12:00:32;;;;;;;2.70;1.30;;;;;;;;;;109078;1253;33827;-34
2022/07/24 12:03:04;;;;;;;4.20;1.60;;;;;;;;;;109123;1253;33843;-31
2022/07/24 12:05:40;;;;;;;2.60;1.30;;;;;;;;;;109125;1253;33675;-35
2022/07/24 12:08:26;;;;;;;2.30;1.30;;;;;;;;;;109095;1253;33310;-34
2022/07/24 12:11:01;;;;;;;2.90;1.50;;;;;;;;;;109093;1253;34540;-36
2022/07/24 12:13:34;;;;;;;3.60;1.80;;;;;;;;;;109122;1253;34255;-35
2022/07/24 12:16:10;;;;;;;;;;;;;;;;;;109132;1253;33879;-34
2022/07/24 12:18:43;;;;;;;3.00;1.40;;;;;;;;;;109105;1253;33882;-34
2022/07/24 12:21:17;;;;;;;3.20;1.50;;;;;;;;;;109090;1253;33905;-37
2022/07/24 12:23:50;;;;;;;4.30;1.40;;;;;;;;;;109125;1253;33371;-34
2022/07/24 12:26:23;;;;;;;2.70;1.40;;;;;;;;;;109077;1253;33921;-35
2022/07/24 12:29:12;;;;;;;2.60;1.40;;;;;;;;;;109074;1253;33368;-37
2022/07/24 12:31:45;;;;;;;3.30;1.60;;;;;;;;;;109046;1253;34188;-38
2022/07/24 12:34:18;;;;;;;2.70;1.30;;;;;;;;;;109086;1253;33865;-37
2022/07/24 12:36:50;;;;;;;2.60;1.30;;;;;;;;;;109090;1260;34443;-36
2022/07/24 12:39:23;;;;;;;2.40;1.50;;;;;;;;;;109136;1253;33908;-36
2022/07/24 12:41:58;;;;;;;3.40;1.60;;;;;;;;;;109087;1254;33910;-36
2022/07/24 12:44:47;;;;;;;4.40;2.00;;;;;;;;;;109111;1253;34282;-37
2022/07/24 12:47:20;;;;;;;3.90;2.00;;;;;;;;;;109105;1260;33960;-33
2022/07/24 12:49:52;;;;;;;4.40;2.20;;;;;;;;;;109123;1260;34068;-34
2022/07/24 12:52:28;;;;;;;3.50;2.00;;;;;;;;;;109126;1253;33371;-35
2022/07/24 12:55:00;;;;;;;3.90;2.00;;;;;;;;;;109379;1249;34341;-37
2022/07/24 12:57:33;;;;;;;7.40;2.00;;;;;;;;;;109076;1251;33837;-35
2022/07/24 13:00:09;;;;;;;3.10;1.80;;;;;;;;;;109166;1251;33378;-35
2022/07/24 13:02:43;;;;;;;4.10;1.90;;;;;;;;;;109165;1253;33873;-35
2022/07/24 13:05:15;;;;;;;3.10;1.90;;;;;;;;;;109158;1251;33419;-35
2022/07/24 13:07:53;;;;;;;3.00;1.70;;;;;;;;;;109179;1259;33872;-37
2022/07/24 13:10:28;;;;;;;3.10;1.80;;;;;;;;;;109165;1259;33984;-35
2022/07/24 13:13:00;;;;;;;2.90;1.70;;;;;;;;;;108910;1251;54783;-36
2022/07/24 13:15:32;;;;;;;3.20;1.60;;;;;;;;;;108416;1257;33819;-36
2022/07/24 13:18:06;;;;;;;4.40;1.90;;;;;;;;;;108520;1265;33619;-37
2022/07/24 13:20:38;;;;;;;4.20;2.30;;;;;;;;;;108390;1265;54346;-41
2022/07/24 13:23:10;;;;;;;3.10;1.70;;;;;;;;;;108870;1264;22606;-37
2022/07/24 13:25:45;;;;;;;5.60;2.00;;;;;;;;;;108819;1265;22597;-34
2022/07/24 13:28:17;;;;;;;3.70;1.80;;;;;;;;;;108846;1257;22528;-35
2022/07/24 13:33:34;;;;;;;3.20;1.80;;;;;;;;;;107091;1293;557896;-37
2022/07/24 13:36:08;;;;;;;3.20;2.00;;;;;;;;;;109254;1269;23867;-37
2022/07/24 13:38:40;;;;;;;3.50;2.00;;;;;;;;;;109480;1266;25243;-34
2022/07/24 13:41:13;;;;;;;4.00;2.30;;;;;;;;;;109674;1266;22610;-36
2022/07/24 13:43:46;;;;;;;3.20;1.90;;;;;;;;;;109638;1259;25375;-36
2022/07/24 13:46:18;;;;;;;4.20;2.60;;;;;;;;;;109669;1264;74725;-36
2022/07/24 13:48:52;;;;;;;4.30;2.70;;;;;;;;;;109902;1264;22769;-36
2022/07/24 13:51:25;;;;;;;3.80;2.70;;;;;;;;;;109939;1264;22488;-36
2022/07/24 13:53:59;;;;;;;4.10;2.80;;;;;;;;;;109915;1264;23724;-36
2022/07/24 13:56:31;;;;;;;5.30;3.00;;;;;;;;;;109935;1257;23248;-36
2022/07/24 13:59:04;;;;;;;4.90;2.90;;;;;;;;;;109927;1264;22506;-33
2022/07/24 14:01:36;;;;;;;4.50;3.10;;;;;;;;;;109908;1264;22495;-36
2022/07/24 14:04:10;;;;;;;4.40;2.40;;;;;;;;;;109937;1264;23001;-36
2022/07/24 14:06:43;;;;;;;3.80;2.40;;;;;;;;;;109953;1257;22538;-36
2022/07/24 14:09:18;;;;;;;4.30;2.30;;;;;;;;;;109925;1257;22546;-35
2022/07/24 14:11:51;;;;;;;3.90;2.00;;;;;;;;;;109947;1264;24228;-36
2022/07/24 14:14:24;;;;;;;4.70;2.30;;;;;;;;;;109933;1264;23834;-36
2022/07/24 14:17:00;;;;;;;3.40;1.90;;;;;;;;;;109970;1264;24177;-35
2022/07/24 14:19:33;;;;;;;3.20;2.10;;;;;;;;;;109943;1264;22484;-35
2022/07/24 14:22:06;;;;;;;4.80;2.20;;;;;;;;;;109974;1264;22516;-36
2022/07/24 14:24:38;;;;;;;3.70;2.10;;;;;;;;;;109936;1264;22467;-36
2022/07/24 14:27:10;;;;;;;2.90;1.90;;;;;;;;;;109939;1264;22050;-35
2022/07/24 14:29:42;;;;;;;3.80;2.30;;;;;;;;;;109923;1264;22754;-36
2022/07/24 14:32:17;;;;;;;4.30;2.20;;;;;;;;;;109911;1257;22721;-36
2022/07/24 14:34:49;;;;;;;4.20;2.30;;;;;;;;;;110360;1260;22485;-36
2022/07/24 14:37:22;;;;;;;5.80;2.80;;;;;;;;;;110388;1260;22598;-35
2022/07/24 14:39:54;;;;;;;5.10;2.60;;;;;;;;;;110348;1254;22660;-35
2022/07/24 14:42:26;;;;;;;4.10;2.40;;;;;;;;;;110391;1260;22485;-35
2022/07/24 14:45:03;;;;;;;4.20;2.50;;;;;;;;;;110388;1254;22481;-36
2022/07/24 14:47:37;;;;;;;5.10;2.40;;;;;;;;;;110353;1260;22417;-35
2022/07/24 14:50:12;;;;;;;4.20;2.30;;;;;;;;;;110354;1260;22655;-36
2022/07/24 14:52:45;;;;;;;3.70;2.30;;;;;;;;;;110417;1260;23849;-36
2022/07/24 14:55:17;;;;;;;4.10;2.40;;;;;;;;;;110393;1260;24358;-36
2022/07/24 14:57:51;;;;;;;4.60;2.30;;;;;;;;;;110335;1254;22497;-35
2022/07/24 15:00:23;;;;;;;4.20;2.40;;;;;;;;;;110342;1260;24174;-35
2022/07/24 15:02:58;;;;;;;3.80;2.30;;;;;;;;;;110357;1260;24179;-35
2022/07/24 15:05:31;;;;;;;3.30;2.10;;;;;;;;;;110322;1253;23727;-35
2022/07/24 15:08:03;;;;;;;4.40;2.30;;;;;;;;;;110331;1253;22495;-35
2022/07/24 15:10:36;;;;;;;3.90;2.20;;;;;;;;;;110373;1260;22482;-35
2022/07/24 15:13:09;;;;;;;3.70;2.30;;;;;;;;;;110363;1260;22462;-35
2022/07/24 15:15:44;;;;;;;4.10;2.40;;;;;;;;;;110307;1260;22568;-35
2022/07/24 15:18:17;;;;;;;4.50;2.30;;;;;;;;;;110362;1260;22901;-35